Time;durP1;ratioP1;P1;durP2;ratioP2;P2;SDS_P1;SDS_P2;PMS_P1;PMS_P2;Temp;Humidity;BMP_temperature;BMP_pressure;BME280_temperature;BME280_humidity;BME280_pressure;Samples;Min_cycle;Max_cycle;Signal;HPM_P1;HPM_P2
2022/07/19 00:00:23;;;;;;;9.98;8.98;;;;;;;29.39;73.31;100525.78;5024356;28;66407;-33
2022/07/19 00:02:54;;;;;;;16.08;8.73;;;;;;;29.94;72.91;100613.53;4955717;28;69721;-33
2022/07/19 00:05:25;;;;;;;12.30;9.00;;;;;;;29.94;74.31;100619.78;4959307;28;66147;-33
2022/07/19 00:07:56;;;;;;;13.82;9.13;;;;;;;29.99;75.00;100619.13;4965966;28;70357;-33
2022/07/19 00:10:27;;;;;;;16.90;9.88;;;;;;;29.77;74.00;100573.53;4956064;28;67034;-33
2022/07/19 00:12:58;;;;;;;10.23;8.98;;;;;;;30.08;74.88;100617.78;4957755;28;69450;-33
2022/07/19 00:15:29;;;;;;;16.10;8.93;;;;;;;30.09;75.06;100624.88;4958115;28;65625;-34
2022/07/19 00:18:00;;;;;;;18.50;9.10;;;;;;;30.15;74.32;100628.56;4958490;28;71293;-33
2022/07/19 00:20:31;;;;;;;23.20;9.60;;;;;;;30.22;71.44;100619.34;4961657;28;65994;-34
2022/07/19 00:23:02;;;;;;;19.17;8.32;;;;;;;30.28;70.65;100623.91;4953955;28;70136;-34
2022/07/19 00:25:33;;;;;;;9.15;8.23;;;;;;;30.40;70.72;100642.13;4960583;28;66472;-33
2022/07/19 00:28:04;;;;;;;11.00;7.25;;;;;;;30.41;70.69;100639.16;4953287;28;70132;-32
2022/07/19 00:30:35;;;;;;;18.57;8.43;;;;;;;30.43;70.17;100636.25;4957147;28;65935;-36
2022/07/19 00:33:08;;;;;;;11.43;7.20;;;;;;;30.47;71.73;100642.84;4956997;28;71295;-36
2022/07/19 00:35:39;;;;;;;12.27;7.35;;;;;;;30.50;71.64;100648.63;4955541;28;65644;-36
2022/07/19 00:38:12;;;;;;;9.13;7.15;;;;;;;30.54;72.18;100648.22;4957356;28;70819;-37
2022/07/19 00:40:43;;;;;;;10.95;7.10;;;;;;;30.59;70.77;100651.91;4953675;28;66170;-36
2022/07/19 00:43:14;;;;;;;17.83;7.25;;;;;;;30.55;70.26;100639.88;4958348;28;70381;-35
2022/07/19 00:45:45;;;;;;;10.43;6.80;;;;;;;30.67;70.83;100657.03;4959163;28;66187;-36
2022/07/19 00:48:17;;;;;;;6.38;5.82;;;;;;;30.75;69.96;100647.78;4956012;28;71345;-35
2022/07/19 00:50:47;;;;;;;6.30;5.50;;;;;;;30.81;69.55;100649.59;4952591;28;65371;-35
2022/07/19 00:53:20;;;;;;;6.37;5.77;;;;;;;30.87;68.48;100664.13;4949867;28;69994;-36
2022/07/19 00:55:50;;;;;;;;;;;;;;;30.59;71.03;100665.44;4956881;28;66291;-35
2022/07/19 00:58:22;;;;;;;7.85;5.40;;;;;;;30.93;68.36;100652.41;4955282;28;69502;-35
2022/07/19 01:00:53;;;;;;;6.00;5.50;;;;;;;30.99;68.05;100646.09;4957373;28;65247;-35
2022/07/19 01:03:25;;;;;;;7.78;5.38;;;;;;;30.93;67.85;100641.56;4956104;28;68259;-35
2022/07/19 01:05:57;;;;;;;6.53;5.38;;;;;;;31.11;68.34;100648.84;4949037;28;66735;-35
2022/07/19 01:08:29;;;;;;;6.20;5.60;;;;;;;31.16;67.93;100655.25;5023450;28;70602;-35
2022/07/19 01:11:00;;;;;;;5.63;5.13;;;;;;;31.12;67.92;100645.94;4956429;28;66855;-37
2022/07/19 01:13:32;;;;;;;6.65;4.97;;;;;;;31.26;67.78;100651.16;4957989;28;69889;-34
2022/07/19 01:16:03;;;;;;;7.50;5.20;;;;;;;31.28;68.14;100643.63;4957613;28;65913;-34
2022/07/19 01:18:34;;;;;;;5.75;5.25;;;;;;;31.31;67.68;100645.88;4956613;28;70828;-35
2022/07/19 01:21:07;;;;;;;11.27;5.65;;;;;;;31.37;67.74;100642.28;4954868;28;66231;-35
2022/07/19 01:23:38;;;;;;;7.90;5.78;;;;;;;31.36;68.29;100640.63;4954665;28;70071;-36
2022/07/19 01:26:10;;;;;;;6.82;5.38;;;;;;;31.31;68.05;100633.16;5018065;28;66027;-36
2022/07/19 01:28:40;;;;;;;8.73;5.22;;;;;;;31.43;67.94;100644.09;4956499;28;71591;-37
2022/07/19 01:31:11;;;;;;;5.78;5.18;;;;;;;31.48;68.30;100644.22;4956918;28;66489;-35
2022/07/19 01:33:44;;;;;;;9.70;5.83;;;;;;;31.04;68.19;100567.66;4955010;28;69777;-36
2022/07/19 01:36:15;;;;;;;8.02;5.72;;;;;;;31.54;68.24;100643.31;4956138;28;65850;-35
2022/07/19 01:38:46;;;;;;;9.37;6.47;;;;;;;31.55;68.05;100639.53;5018892;28;69537;-36
2022/07/19 01:41:17;;;;;;;12.88;6.40;;;;;;;31.60;68.30;100644.28;4957835;28;66165;-36
2022/07/19 01:43:48;;;;;;;11.63;8.13;;;;;;;31.55;68.61;100634.09;4956921;28;69807;-35
2022/07/19 01:46:19;;;;;;;13.43;7.43;;;;;;;31.57;68.17;100632.00;4954574;28;65899;-35
2022/07/19 01:48:50;;;;;;;8.70;7.43;;;;;;;31.69;68.21;100633.91;4958421;28;69914;-35
2022/07/19 01:51:21;;;;;;;9.48;6.70;;;;;;;31.60;68.36;100607.13;4957467;28;67439;-36
2022/07/19 01:53:52;;;;;;;11.73;7.60;;;;;;;31.73;68.33;100624.25;4957073;28;68405;-36
2022/07/19 01:56:23;;;;;;;13.73;7.78;;;;;;;31.71;68.05;100615.53;4953589;28;68015;-38
2022/07/19 01:58:55;;;;;;;14.27;7.95;;;;;;;31.78;68.35;100616.25;4995057;28;68676;-35
2022/07/19 02:01:26;;;;;;;9.07;7.57;;;;;;;31.71;68.12;100599.25;4956067;28;65193;-35
2022/07/19 02:03:57;;;;;;;10.83;7.27;;;;;;;31.73;68.28;100586.28;4958905;28;70816;-35
2022/07/19 02:06:28;;;;;;;11.45;7.38;;;;;;;31.88;68.06;100613.78;4956268;28;65919;-35
2022/07/19 02:09:00;;;;;;;10.18;7.50;;;;;;;31.82;68.14;100606.59;4956247;28;69749;-36
2022/07/19 02:11:36;;;;;;;9.68;6.97;;;;;;;31.91;67.94;100609.78;4961052;28;66095;-35
2022/07/19 02:14:09;;;;;;;10.25;6.80;;;;;;;31.97;67.78;100604.28;4954540;28;69998;-36
2022/07/19 02:16:40;;;;;;;10.00;6.68;;;;;;;31.97;67.98;100587.19;4955613;28;65089;-35
2022/07/19 02:19:11;;;;;;;;;;;;;;;31.69;69.40;100585.94;4957526;28;70402;-36
2022/07/19 02:21:42;;;;;;;7.00;6.30;;;;;;;32.02;67.56;100590.84;4953082;28;66832;-35
2022/07/19 02:24:14;;;;;;;7.40;6.38;;;;;;;32.07;67.48;100590.13;5018271;28;70025;-36
2022/07/19 02:26:45;;;;;;;7.53;6.20;;;;;;;32.09;67.46;100589.88;4955199;28;66078;-36
2022/07/19 02:29:16;;;;;;;6.25;5.63;;;;;;;32.13;67.19;100591.09;4955155;28;71156;-36
2022/07/19 02:31:47;;;;;;;6.90;6.03;;;;;;;32.10;66.98;100592.38;4953597;28;65351;-36
2022/07/19 02:34:18;;;;;;;6.15;5.60;;;;;;;32.04;67.01;100577.88;4958600;28;69329;-36
2022/07/19 02:36:49;;;;;;;11.48;6.75;;;;;;;32.19;67.00;100590.97;4956790;28;65709;-36
2022/07/19 02:39:20;;;;;;;10.35;6.15;;;;;;;32.18;66.94;100594.75;5026308;28;69809;-36
2022/07/19 02:41:50;;;;;;;11.13;5.95;;;;;;;32.26;66.89;100585.41;4952779;28;67026;-35
2022/07/19 02:44:22;;;;;;;6.13;5.53;;;;;;;32.29;66.74;100595.81;5027264;28;69389;-36
2022/07/19 02:46:53;;;;;;;10.07;5.73;;;;;;;32.02;66.61;100542.00;5019727;28;67139;-36
2022/07/19 02:49:24;;;;;;;6.05;5.55;;;;;;;32.17;66.66;100565.13;4958145;28;69859;-36
2022/07/19 02:51:55;;;;;;;14.57;5.70;;;;;;;32.33;66.44;100580.69;4948647;28;65490;-35
2022/07/19 02:54:26;;;;;;;6.10;5.55;;;;;;;32.27;66.47;100574.31;5016597;28;69974;-35
2022/07/19 02:56:57;;;;;;;6.88;5.55;;;;;;;32.38;66.31;100583.50;4950852;28;66502;-35
2022/07/19 02:59:28;;;;;;;6.50;5.28;;;;;;;32.39;66.27;100585.16;4962369;28;69029;-37
2022/07/19 03:01:58;;;;;;;7.40;5.30;;;;;;;32.40;66.01;100589.53;4959126;28;65837;-37
2022/07/19 03:04:29;;;;;;;7.43;5.70;;;;;;;32.43;66.15;100580.91;4956628;28;69643;-35
2022/07/19 03:07:01;;;;;;;6.28;5.70;;;;;;;32.43;66.28;100585.50;4960109;28;65065;-35
2022/07/19 03:09:32;;;;;;;9.57;6.05;;;;;;;32.45;66.28;100578.78;4969641;28;69721;-36
2022/07/19 03:12:03;;;;;;;10.15;6.20;;;;;;;32.44;66.78;100566.28;4960222;28;65946;-34
2022/07/19 03:14:34;;;;;;;9.65;6.32;;;;;;;32.47;66.63;100563.09;4968941;28;70141;-37
2022/07/19 03:17:05;;;;;;;11.97;6.47;;;;;;;32.51;66.29;100570.78;4959773;28;66448;-34
2022/07/19 03:19:36;;;;;;;15.60;6.50;;;;;;;32.47;66.59;100560.38;4959400;28;70414;-36
2022/07/19 03:22:07;;;;;;;11.10;6.40;;;;;;;32.40;66.64;100542.53;4961344;28;66165;-36
2022/07/19 03:24:38;;;;;;;9.23;5.97;;;;;;;32.47;66.36;100552.25;4952765;28;71055;-36
2022/07/19 03:27:09;;;;;;;16.80;6.47;;;;;;;32.54;66.50;100554.00;4958859;28;66129;-36
2022/07/19 03:29:40;;;;;;;18.63;6.95;;;;;;;32.57;66.32;100548.94;4953756;28;70258;-35
2022/07/19 03:32:11;;;;;;;14.05;6.93;;;;;;;32.57;66.51;100545.38;4952699;28;66123;-36
2022/07/19 03:34:43;;;;;;;6.47;5.73;;;;;;;32.56;66.37;100539.13;4955715;28;70082;-36
2022/07/19 03:37:14;;;;;;;11.35;6.75;;;;;;;32.60;66.49;100537.59;4957882;28;65712;-36
2022/07/19 03:39:45;;;;;;;8.50;6.30;;;;;;;32.62;66.24;100532.72;4958073;28;70463;-35
2022/07/19 03:42:16;;;;;;;10.13;7.13;;;;;;;32.61;66.12;100544.66;4958545;28;65566;-35
2022/07/19 03:44:47;;;;;;;13.07;7.13;;;;;;;32.64;66.17;100527.06;4960233;28;70998;-35
2022/07/19 03:47:18;;;;;;;8.75;6.07;;;;;;;32.40;66.21;100489.09;4958017;28;66427;-35
2022/07/19 03:49:49;;;;;;;14.50;7.13;;;;;;;32.65;66.21;100529.56;4953445;28;69834;-35
2022/07/19 03:52:20;;;;;;;9.65;5.80;;;;;;;32.68;66.04;100528.22;4959356;28;65713;-36
2022/07/19 03:54:51;;;;;;;9.65;6.57;;;;;;;32.57;66.09;100510.06;4957547;28;69578;-37
2022/07/19 03:57:22;;;;;;;7.13;6.13;;;;;;;32.70;65.88;100532.34;4958973;28;65523;-37
2022/07/19 03:59:53;;;;;;;11.40;5.97;;;;;;;32.69;66.06;100524.44;5014137;28;71128;-35
2022/07/19 04:02:24;;;;;;;6.47;5.82;;;;;;;32.70;66.09;100531.53;5021220;28;65828;-36
2022/07/19 04:04:55;;;;;;;11.30;6.03;;;;;;;32.46;65.99;100488.16;4958813;28;69943;-36
2022/07/19 04:07:26;;;;;;;8.57;5.47;;;;;;;32.61;65.92;100508.53;4957180;28;66334;-36
2022/07/19 04:09:57;;;;;;;9.85;5.78;;;;;;;32.78;65.60;100527.59;4956121;28;70210;-35
2022/07/19 04:12:28;;;;;;;8.73;5.93;;;;;;;32.82;65.66;100517.91;4956153;28;66783;-36
2022/07/19 04:15:00;;;;;;;7.53;5.18;;;;;;;32.82;65.74;100528.75;4956305;28;71017;-36
2022/07/19 04:17:31;;;;;;;7.70;4.93;;;;;;;32.84;65.43;100518.47;4957429;28;65682;-37
2022/07/19 04:20:03;;;;;;;8.32;5.30;;;;;;;32.69;65.49;100503.53;4958160;28;70129;-35
2022/07/19 04:22:34;;;;;;;9.02;5.47;;;;;;;32.88;65.42;100525.09;5030061;28;67259;-35
2022/07/19 04:25:05;;;;;;;;;;;;;;;32.57;66.26;100520.94;5038343;28;70521;-37
2022/07/19 04:27:36;;;;;;;12.55;5.47;;;;;;;32.88;65.56;100517.78;4958395;28;65367;-35
2022/07/19 04:30:08;;;;;;;18.55;6.10;;;;;;;32.89;65.46;100519.41;4958451;28;69814;-37
2022/07/19 04:32:39;;;;;;;14.65;7.15;;;;;;;32.92;65.40;100521.63;4954175;28;66148;-34
2022/07/19 04:35:10;;;;;;;13.65;6.65;;;;;;;32.69;65.42;100481.81;4954520;28;69739;-35
2022/07/19 04:37:41;;;;;;;12.65;7.35;;;;;;;32.91;65.24;100511.84;5023831;28;66690;-37
2022/07/19 04:40:12;;;;;;;17.17;6.95;;;;;;;32.96;65.34;100513.00;4957022;28;69811;-35
2022/07/19 04:42:43;;;;;;;8.95;6.18;;;;;;;32.93;65.40;100498.84;5013221;28;65912;-35
2022/07/19 04:45:14;;;;;;;8.77;6.05;;;;;;;32.98;65.16;100510.88;4954871;28;70088;-36
2022/07/19 04:47:45;;;;;;;11.10;5.88;;;;;;;32.98;65.16;100508.97;4952381;28;65940;-37
2022/07/19 04:50:17;;;;;;;15.03;5.77;;;;;;;32.93;65.17;100507.00;4957099;28;69596;-35
2022/07/19 04:52:47;;;;;;;13.20;5.60;;;;;;;32.99;65.13;100512.50;4957636;28;66281;-34
2022/07/19 04:55:18;;;;;;;8.98;5.60;;;;;;;32.94;66.13;100507.81;4951902;28;70197;-35
2022/07/19 04:57:49;;;;;;;8.82;5.28;;;;;;;32.98;65.88;100505.44;4958460;28;66403;-34
2022/07/19 05:00:20;;;;;;;11.75;4.72;;;;;;;32.93;66.01;100498.00;4957090;28;70087;-36
2022/07/19 05:02:54;;;;;;;13.80;6.07;;;;;;;32.66;66.09;100438.84;4950435;28;66232;-38
2022/07/19 05:05:25;;;;;;;9.60;5.20;;;;;;;33.05;65.54;100485.22;4959695;28;70578;-37
2022/07/19 05:07:56;;;;;;;9.63;5.78;;;;;;;33.06;65.79;100481.44;4957358;28;66007;-37
2022/07/19 05:10:27;;;;;;;9.65;5.35;;;;;;;33.06;65.90;100488.78;4956250;28;68866;-37
2022/07/19 05:12:58;;;;;;;7.87;5.30;;;;;;;33.00;65.83;100470.72;4958571;28;67855;-36
2022/07/19 05:15:30;;;;;;;9.32;4.70;;;;;;;33.10;65.60;100492.66;4956590;28;70327;-36
2022/07/19 05:18:01;;;;;;;10.90;5.33;;;;;;;33.09;65.44;100478.22;4956171;28;65983;-36
2022/07/19 05:20:32;;;;;;;6.53;5.25;;;;;;;33.15;65.46;100476.41;4955773;28;70042;-40
2022/07/19 05:23:03;;;;;;;8.13;4.67;;;;;;;33.15;65.16;100473.69;4960388;28;66248;-38
2022/07/19 05:25:34;;;;;;;10.27;4.35;;;;;;;33.17;65.13;100466.13;4953573;28;70112;-36
2022/07/19 05:28:05;;;;;;;12.23;5.32;;;;;;;33.19;65.10;100447.69;4968013;28;65641;-35
2022/07/19 05:30:36;;;;;;;12.68;5.28;;;;;;;33.21;65.02;100456.44;4955226;28;69244;-35
2022/07/19 05:33:07;;;;;;;11.18;4.35;;;;;;;33.21;65.18;100451.00;5022346;28;66100;-37
2022/07/19 05:35:38;;;;;;;7.72;4.50;;;;;;;33.08;65.19;100433.09;5017268;28;70513;-35
2022/07/19 05:38:09;;;;;;;7.28;4.45;;;;;;;33.26;65.04;100452.97;4954588;28;65369;-36
2022/07/19 05:40:40;;;;;;;4.10;3.70;;;;;;;33.29;64.78;100436.16;4951931;28;70085;-35
2022/07/19 05:43:10;;;;;;;5.18;3.50;;;;;;;33.29;64.77;100437.00;4957966;28;66578;-35
2022/07/19 05:45:41;;;;;;;6.20;4.65;;;;;;;33.31;64.90;100429.41;4951579;28;69647;-36
2022/07/19 05:48:12;;;;;;;9.70;4.15;;;;;;;33.33;64.64;100419.09;4956342;28;65364;-36
2022/07/19 05:50:43;;;;;;;7.45;4.20;;;;;;;33.06;64.85;100358.34;4957860;28;70664;-36
2022/07/19 05:53:17;;;;;;;10.30;4.10;;;;;;;33.35;64.92;100397.94;5021360;28;66618;-34
2022/07/19 05:55:48;;;;;;;6.72;3.90;;;;;;;33.38;64.72;100405.59;5023104;28;70497;-35
2022/07/19 05:58:19;;;;;;;5.28;3.80;;;;;;;33.30;64.67;100378.81;4951978;28;65696;-36
2022/07/19 06:03:39;;;;;;;5.13;3.65;;;;;;;33.41;64.58;100373.56;4953264;28;65857;-35
2022/07/19 06:06:10;;;;;;;5.23;3.50;;;;;;;33.38;64.34;100370.25;4955467;28;70195;-36
2022/07/19 06:08:41;;;;;;;3.90;3.60;;;;;;;33.43;64.64;100374.09;4952517;28;66005;-35
2022/07/19 06:11:13;;;;;;;7.95;3.85;;;;;;;33.44;64.49;100367.63;4953226;28;69159;-35
2022/07/19 06:13:45;;;;;;;3.92;3.58;;;;;;;33.43;64.69;100368.66;4952891;28;65324;-37
2022/07/19 06:16:17;;;;;;;5.00;3.92;;;;;;;33.37;64.60;100354.19;5020544;28;70101;-35
2022/07/19 06:18:49;;;;;;;5.80;4.30;;;;;;;33.42;64.62;100361.59;4956101;28;65505;-36
2022/07/19 06:21:21;;;;;;;5.73;3.53;;;;;;;33.50;64.52;100366.59;4948491;28;70862;-37
2022/07/19 06:23:52;;;;;;;10.68;3.90;;;;;;;33.49;64.36;100359.50;4960274;28;65071;-36
2022/07/19 06:26:23;;;;;;;4.47;3.43;;;;;;;33.52;64.38;100351.72;4951170;28;71299;-36
2022/07/19 06:28:54;;;;;;;4.73;3.67;;;;;;;33.53;64.54;100350.63;4951783;28;67883;-35
2022/07/19 06:31:25;;;;;;;4.57;3.92;;;;;;;33.53;64.15;100347.09;4972512;28;69004;-35
2022/07/19 06:33:57;;;;;;;6.85;3.60;;;;;;;33.46;64.08;100330.94;5021583;28;65757;-36
2022/07/19 06:36:28;;;;;;;6.82;3.85;;;;;;;33.59;64.44;100343.38;4957839;28;69849;-36
2022/07/19 06:38:59;;;;;;;5.43;3.63;;;;;;;33.60;64.07;100328.72;5022182;28;65392;-36
2022/07/19 06:41:30;;;;;;;5.15;3.42;;;;;;;33.56;63.78;100317.50;4965565;28;69442;-36
2022/07/19 06:44:00;;;;;;;6.13;3.42;;;;;;;33.63;64.08;100317.31;4968543;28;66285;-36
2022/07/19 06:46:32;;;;;;;6.82;3.47;;;;;;;33.63;63.95;100311.88;4953809;28;70082;-36
2022/07/19 06:49:03;;;;;;;4.13;3.37;;;;;;;33.66;63.74;100308.66;4958704;28;66021;-37
2022/07/19 06:51:33;;;;;;;4.50;3.60;;;;;;;33.70;63.91;100307.06;4959997;28;69622;-36
2022/07/19 06:54:05;;;;;;;6.57;3.92;;;;;;;33.69;64.14;100300.00;4954652;28;64855;-35
2022/07/19 06:56:36;;;;;;;8.45;3.88;;;;;;;33.72;63.89;100290.50;4954695;28;69360;-35
2022/07/19 06:59:07;;;;;;;4.20;3.78;;;;;;;33.73;63.89;100282.06;4958383;28;65963;-36
2022/07/19 07:01:37;;;;;;;6.93;3.63;;;;;;;33.74;63.68;100275.56;4960562;28;69552;-37
2022/07/19 07:04:09;;;;;;;4.07;3.38;;;;;;;33.75;63.92;100271.78;4958121;28;66601;-36
2022/07/19 07:06:40;;;;;;;4.97;3.07;;;;;;;33.76;64.04;100262.53;5013233;28;70713;-35
2022/07/19 07:09:11;;;;;;;4.80;3.35;;;;;;;33.77;63.72;100269.63;4959259;28;66035;-35
2022/07/19 07:11:42;;;;;;;3.93;3.43;;;;;;;33.76;63.46;100258.97;4958827;28;70437;-36
2022/07/19 07:14:13;;;;;;;4.68;3.95;;;;;;;33.79;63.52;100256.59;4958134;28;66613;-35
2022/07/19 07:16:44;;;;;;;4.78;3.40;;;;;;;33.55;63.59;100211.72;4958685;28;69496;-36
2022/07/19 07:19:15;;;;;;;4.17;2.90;;;;;;;33.83;63.44;100250.66;4960660;28;66033;-36
2022/07/19 07:21:46;;;;;;;7.50;3.40;;;;;;;33.74;63.44;100226.63;4958083;28;69341;-35
2022/07/19 07:24:17;;;;;;;4.13;3.03;;;;;;;33.83;63.10;100228.88;4956192;28;65741;-37
2022/07/19 07:26:48;;;;;;;8.52;3.05;;;;;;;33.84;63.34;100241.38;4950512;28;69412;-37
2022/07/19 07:29:19;;;;;;;3.83;2.80;;;;;;;33.77;63.38;100222.56;5016610;28;66443;-36
2022/07/19 07:31:50;;;;;;;6.55;3.00;;;;;;;33.88;63.19;100232.47;4955427;28;70194;-37
2022/07/19 07:34:22;;;;;;;3.38;3.08;;;;;;;33.89;63.53;100244.19;4961633;28;66449;-37
2022/07/19 07:36:53;;;;;;;7.13;3.15;;;;;;;33.85;63.71;100248.47;4957054;28;69758;-35
2022/07/19 07:39:24;;;;;;;6.10;3.05;;;;;;;33.86;63.91;100250.13;5021987;28;65870;-36
2022/07/19 07:41:55;;;;;;;6.38;3.10;;;;;;;33.88;63.91;100247.94;4957148;28;70292;-35
2022/07/19 07:44:43;;;;;;;6.25;3.05;;;;;;;33.90;63.48;100245.81;4949922;28;65253;-35
2022/07/19 07:47:14;;;;;;;5.03;2.72;;;;;;;33.86;63.91;100241.97;4954033;28;69032;-37
2022/07/19 07:49:45;;;;;;;5.73;3.20;;;;;;;33.90;63.97;100251.25;4956406;28;66458;-36
2022/07/19 07:52:16;;;;;;;3.50;2.70;;;;;;;33.91;63.69;100244.75;4947459;28;69320;-36
2022/07/19 07:54:48;;;;;;;4.83;2.93;;;;;;;33.92;63.77;100239.03;4956715;28;66516;-38
2022/07/19 07:57:40;;;;;;;9.93;3.10;;;;;;;33.94;63.52;100249.66;4951931;28;69794;-36
2022/07/19 08:00:12;;;;;;;4.57;3.30;;;;;;;33.92;63.40;100239.03;4861434;28;2750776;-35
2022/07/19 08:02:46;;;;;;;7.80;3.58;;;;;;;33.61;63.44;100169.91;4958594;28;69555;-35
2022/07/19 08:05:24;;;;;;;4.88;3.20;;;;;;;33.22;63.24;100107.47;5021945;28;65305;-35
2022/07/19 08:07:55;;;;;;;8.18;3.20;;;;;;;33.94;63.24;100226.00;4962242;28;69421;-35
2022/07/19 08:10:31;;;;;;;5.60;3.17;;;;;;;33.49;63.25;100163.72;4957039;28;66225;-35
2022/07/19 08:13:02;;;;;;;4.95;3.42;;;;;;;33.84;63.03;100219.63;4950571;28;69333;-37
2022/07/19 08:15:37;;;;;;;6.22;3.88;;;;;;;33.84;63.34;100214.19;4958018;28;66403;-35
2022/07/19 08:18:08;;;;;;;8.90;4.10;;;;;;;33.88;63.06;100210.72;4958691;28;70223;-35
2022/07/19 08:20:39;;;;;;;6.03;3.10;;;;;;;33.93;63.33;100223.53;4958008;28;65571;-36
2022/07/19 08:23:10;;;;;;;7.33;3.20;;;;;;;33.87;63.60;100227.28;4957548;28;71109;-36
2022/07/19 08:25:42;;;;;;;4.10;3.63;;;;;;;33.90;63.45;100240.38;4958071;28;65982;-36
2022/07/19 08:28:13;;;;;;;6.35;3.25;;;;;;;33.91;63.11;100242.03;4959253;28;70574;-36
2022/07/19 08:30:43;;;;;;;4.97;3.63;;;;;;;33.90;63.45;100245.81;4955980;28;66290;-35
2022/07/19 08:33:34;;;;;;;7.07;3.65;;;;;;;33.93;62.92;100239.84;4953440;28;70465;-36
2022/07/19 08:36:06;;;;;;;11.30;3.43;;;;;;;33.92;63.15;100232.78;5021253;28;67129;-36
2022/07/19 08:38:39;;;;;;;6.85;3.95;;;;;;;33.42;62.98;100146.81;4954604;28;69160;-35
2022/07/19 08:41:10;;;;;;;6.95;4.20;;;;;;;33.87;63.13;100219.94;4957573;28;65617;-34
2022/07/19 08:43:41;;;;;;;7.30;5.07;;;;;;;33.89;63.48;100233.28;5021109;28;69763;-37
2022/07/19 08:46:12;;;;;;;13.57;5.10;;;;;;;33.86;63.64;100244.69;4958556;28;66386;-36
2022/07/19 08:48:46;;;;;;;7.47;4.40;;;;;;;33.48;63.17;100192.00;5021224;28;69850;-36
2022/07/19 08:51:21;;;;;;;7.22;4.05;;;;;;;33.84;63.38;100276.75;5013174;28;66116;-37
2022/07/19 08:53:52;;;;;;;10.07;4.40;;;;;;;33.86;63.27;100283.59;4954288;28;70384;-36
2022/07/19 08:59:13;;;;;;;10.20;4.10;;;;;;;33.89;63.53;100336.69;4954777;28;70134;-36
2022/07/19 09:01:44;;;;;;;8.70;4.50;;;;;;;33.84;64.06;100350.22;4957721;28;65973;-36
2022/07/19 09:04:19;;;;;;;6.75;4.78;;;;;;;33.82;63.77;100342.28;4958308;28;69690;-36
2022/07/19 09:06:52;;;;;;;9.30;5.00;;;;;;;33.67;63.91;100307.56;4958636;28;66136;-36
2022/07/19 09:09:28;;;;;;;6.85;4.43;;;;;;;33.77;63.33;100324.03;4959291;28;70696;-37
2022/07/19 09:12:01;;;;;;;6.85;4.20;;;;;;;33.81;63.27;100346.91;4951623;28;66295;-35
2022/07/19 09:14:36;;;;;;;9.15;4.82;;;;;;;33.83;63.93;100364.91;4954403;28;70542;-35
2022/07/19 09:17:19;;;;;;;10.90;4.60;;;;;;;33.32;63.49;100276.13;4956499;28;65657;-36
2022/07/19 09:19:51;;;;;;;5.90;4.00;;;;;;;33.78;63.44;100358.31;4953967;28;70279;-36
2022/07/19 09:22:22;;;;;;;7.38;4.32;;;;;;;33.78;63.61;100366.47;4959401;28;66544;-37
2022/07/19 09:24:53;;;;;;;5.68;3.70;;;;;;;33.74;63.62;100349.03;4957873;28;69705;-37
2022/07/19 09:27:27;;;;;;;;;;;;;;;33.45;64.45;100342.06;4949382;28;65609;-35
2022/07/19 09:30:00;;;;;;;5.05;3.97;;;;;;;33.69;63.89;100343.50;4953232;28;70407;-37
2022/07/19 09:32:31;;;;;;;5.90;4.18;;;;;;;33.70;63.68;100330.72;4950500;28;66277;-36
2022/07/19 09:35:03;;;;;;;4.97;3.92;;;;;;;33.71;63.53;100335.09;4957335;28;69674;-37
2022/07/19 09:37:35;;;;;;;8.57;3.55;;;;;;;33.62;63.30;100312.94;4955948;28;66114;-36
2022/07/19 09:40:09;;;;;;;5.70;3.72;;;;;;;32.89;63.31;100196.13;4957812;28;70191;-37
2022/07/19 09:42:43;;;;;;;4.68;4.10;;;;;;;33.31;63.58;100260.84;4955579;28;65676;-36
2022/07/19 09:45:17;;;;;;;5.78;3.80;;;;;;;33.19;63.76;100241.13;4957789;28;70441;-36
2022/07/19 09:47:50;;;;;;;5.05;4.13;;;;;;;33.54;63.64;100281.59;4955834;28;65793;-36
2022/07/19 09:50:21;;;;;;;4.90;4.43;;;;;;;33.62;63.49;100299.34;4955355;28;69920;-37
2022/07/19 09:52:53;;;;;;;4.70;4.07;;;;;;;33.59;63.84;100330.59;4957922;28;65892;-38
2022/07/19 09:55:25;;;;;;;5.93;4.28;;;;;;;33.58;64.21;100374.38;4957289;28;70386;-35
2022/07/19 09:57:56;;;;;;;;;;;;;;;33.24;65.10;100363.53;4956966;28;65381;-36
2022/07/19 10:00:28;;;;;;;4.87;4.33;;;;;;;33.51;64.52;100376.41;5022480;28;69164;-37
2022/07/19 10:03:01;;;;;;;5.20;4.53;;;;;;;33.51;64.49;100379.94;5021518;28;66487;-36
2022/07/19 10:05:32;;;;;;;5.55;4.88;;;;;;;33.49;64.07;100375.81;4954762;28;69193;-36
2022/07/19 10:08:05;;;;;;;6.20;5.00;;;;;;;33.46;64.40;100371.72;4953222;28;67107;-37
2022/07/19 10:10:36;;;;;;;5.50;4.85;;;;;;;33.47;64.30;100375.28;4953207;28;70125;-37
2022/07/19 10:13:08;;;;;;;4.93;4.47;;;;;;;33.42;64.49;100372.47;4951351;28;67089;-36
2022/07/19 10:15:47;;;;;;;5.63;5.03;;;;;;;33.38;63.93;100370.25;5015497;28;70279;-37
2022/07/19 10:18:25;;;;;;;4.80;4.22;;;;;;;33.36;63.85;100377.81;4949591;28;67163;-36
2022/07/19 10:20:58;;;;;;;6.50;4.35;;;;;;;33.25;63.90;100346.13;4952736;28;70520;-37
2022/07/19 10:23:31;;;;;;;4.28;3.88;;;;;;;33.33;63.28;100351.16;4956925;28;67098;-36
2022/07/19 10:26:02;;;;;;;4.10;3.70;;;;;;;33.22;63.64;100349.34;4957439;28;69487;-36
2022/07/19 10:28:38;;;;;;;4.97;4.57;;;;;;;32.83;63.89;100324.81;4956406;28;67798;-34
2022/07/19 10:31:31;;;;;;;5.03;4.22;;;;;;;32.78;64.35;100353.78;4946174;28;70006;-34
2022/07/19 10:34:05;;;;;;;4.13;3.25;;;;;;;32.29;64.18;100318.97;5035379;28;66899;-33
2022/07/19 10:36:37;;;;;;;3.40;3.10;;;;;;;32.60;64.60;100390.13;4950395;28;69298;-33
2022/07/19 10:39:43;;;;;;;6.40;2.95;;;;;;;32.30;65.41;100396.59;4949856;28;66530;-34
2022/07/19 10:42:20;;;;;;;6.00;3.05;;;;;;;32.43;65.97;100406.31;4974811;28;69965;-35
2022/07/19 10:44:57;;;;;;;9.52;3.50;;;;;;;32.45;67.25;100405.00;4961003;28;66165;-35
2022/07/19 10:47:37;;;;;;;3.53;2.90;;;;;;;32.44;67.63;100411.53;4958853;28;70326;-35
2022/07/19 10:50:18;;;;;;;3.60;3.30;;;;;;;32.05;67.65;100356.22;4955493;28;66179;-35
2022/07/19 10:52:49;;;;;;;4.38;2.97;;;;;;;32.41;67.83;100425.59;5022980;28;69990;-33
2022/07/19 10:55:27;;;;;;;3.20;2.90;;;;;;;32.40;67.90;100421.22;5026193;28;66491;-35
2022/07/19 10:58:08;;;;;;;3.08;2.70;;;;;;;32.39;67.55;100422.28;4960418;28;69943;-33
2022/07/19 11:00:47;;;;;;;8.32;2.67;;;;;;;31.97;67.50;100353.88;5024010;28;65530;-36
2022/07/19 11:03:21;;;;;;;3.83;2.80;;;;;;;32.39;67.30;100430.41;5021169;28;69427;-34
2022/07/19 11:05:58;;;;;;;2.63;2.45;;;;;;;32.24;67.18;100419.28;4956564;28;65938;-36
2022/07/19 11:08:41;;;;;;;8.30;3.08;;;;;;;31.64;66.69;100319.25;5012393;28;69568;-35
2022/07/19 11:11:15;;;;;;;5.40;3.45;;;;;;;32.21;66.30;100381.78;4958980;28;65749;-36
2022/07/19 11:13:51;;;;;;;4.20;3.22;;;;;;;32.59;65.57;100456.34;4961380;28;70364;-34
2022/07/19 11:16:26;;;;;;;3.63;3.33;;;;;;;32.30;65.50;100395.78;4958085;28;66203;-36
2022/07/19 11:19:05;;;;;;;4.03;3.20;;;;;;;32.63;65.18;100457.53;4961189;28;70443;-33
2022/07/19 11:21:37;;;;;;;5.85;3.60;;;;;;;32.65;65.48;100463.53;5021734;28;66363;-36
2022/07/19 11:24:08;;;;;;;4.57;4.18;;;;;;;32.60;65.17;100460.75;4950932;28;70341;-35
2022/07/19 11:26:40;;;;;;;4.83;3.63;;;;;;;32.56;65.29;100459.56;4954291;28;65761;-36
2022/07/19 11:29:16;;;;;;;4.63;4.22;;;;;;;32.67;65.02;100488.56;4951298;28;69122;-36
2022/07/19 11:31:48;;;;;;;5.35;4.40;;;;;;;32.71;64.94;100484.31;4960924;28;65724;-35
2022/07/19 11:34:21;;;;;;;4.55;4.15;;;;;;;32.71;65.05;100489.75;4955054;28;69895;-35
2022/07/19 11:36:59;;;;;;;15.90;10.27;;;;;;;32.69;64.73;100484.53;4959790;28;66046;-35
2022/07/19 11:39:47;;;;;;;7.57;6.43;;;;;;;32.51;64.93;100465.69;4954811;28;69437;-35
2022/07/19 11:42:48;;;;;;;6.35;5.93;;;;;;;32.51;64.99;100486.59;4955998;28;66112;-34
2022/07/19 11:45:44;;;;;;;6.03;5.63;;;;;;;32.24;64.85;100425.53;4958005;28;70476;-36
2022/07/19 11:48:30;;;;;;;5.30;4.80;;;;;;;32.61;64.66;100503.09;4957146;28;65213;-35
2022/07/19 11:51:04;;;;;;;5.03;4.60;;;;;;;32.27;64.62;100435.06;5036044;28;69303;-36
2022/07/19 11:53:39;;;;;;;4.85;4.55;;;;;;;32.71;64.46;100512.28;4956224;28;65315;-37